createdAt,value
2018-07-24T00:00:04.276Z,99.90
2018-07-24T00:02:33.152Z,99.90
2018-07-24T00:05:02.060Z,99.90
2018-07-24T00:07:30.963Z,99.90
2018-07-24T00:10:01.605Z,99.90
2018-07-24T00:12:30.611Z,99.90
2018-07-24T00:14:59.541Z,99.90
2018-07-24T00:17:28.432Z,99.90
2018-07-24T00:19:57.333Z,99.90
2018-07-24T00:22:26.251Z,99.90
2018-07-24T00:24:55.180Z,99.90
2018-07-24T00:27:24.102Z,99.90
2018-07-24T00:29:53.024Z,99.90
2018-07-24T00:32:22.035Z,99.90
2018-07-24T00:34:50.953Z,99.90
2018-07-24T00:37:20.013Z,99.90
2018-07-24T00:39:48.964Z,99.90
2018-07-24T00:42:18.007Z,99.90
2018-07-24T00:44:46.999Z,99.90
2018-07-24T00:47:15.977Z,99.90
2018-07-24T00:49:44.849Z,99.90
2018-07-24T00:52:13.835Z,99.90
2018-07-24T00:54:42.724Z,99.90
2018-07-24T00:57:11.729Z,99.90
2018-07-24T00:59:40.612Z,99.90
2018-07-24T01:02:09.647Z,99.90
2018-07-24T01:04:38.548Z,99.90
2018-07-24T01:07:07.736Z,99.90
2018-07-24T01:09:36.677Z,99.90
2018-07-24T01:12:05.540Z,99.90
2018-07-24T01:14:34.440Z,99.90
2018-07-24T01:17:03.292Z,99.90
2018-07-24T01:19:32.184Z,99.90
2018-07-24T01:22:01.058Z,99.90
2018-07-24T01:24:29.972Z,99.90
2018-07-24T01:26:58.805Z,99.90
2018-07-24T01:29:27.728Z,99.90
2018-07-24T01:31:56.591Z,99.90
2018-07-24T01:34:25.584Z,99.90
2018-07-24T01:36:54.521Z,99.90
2018-07-24T01:39:23.480Z,99.90
2018-07-24T01:41:52.376Z,99.90
2018-07-24T01:44:21.331Z,99.90
2018-07-24T01:46:50.213Z,99.90
2018-07-24T01:49:19.140Z,99.90
2018-07-24T01:51:48.110Z,99.90
2018-07-24T01:54:17.085Z,99.90
2018-07-24T01:56:45.974Z,99.90
2018-07-24T01:59:14.908Z,99.90
2018-07-24T02:01:43.806Z,99.90
2018-07-24T02:04:12.878Z,99.90
2018-07-24T02:06:41.781Z,99.90
2018-07-24T02:09:11.516Z,99.90
2018-07-24T02:11:40.709Z,99.90
2018-07-24T02:14:09.830Z,99.90
2018-07-24T02:16:38.724Z,99.90
2018-07-24T02:19:07.628Z,99.90
2018-07-24T02:21:37.463Z,99.90
2018-07-24T02:24:06.472Z,99.90
2018-07-24T02:26:35.372Z,99.90
2018-07-24T02:29:04.316Z,99.90
2018-07-24T02:31:33.221Z,99.90
2018-07-24T02:34:02.077Z,99.90
2018-07-24T02:36:31.037Z,99.90
2018-07-24T02:38:59.912Z,99.90
2018-07-24T02:41:28.846Z,99.90
2018-07-24T02:43:57.736Z,99.90
2018-07-24T02:46:26.651Z,99.90
2018-07-24T02:48:55.523Z,99.90
2018-07-24T02:51:24.464Z,99.90
2018-07-24T02:53:53.500Z,99.90
2018-07-24T02:56:22.484Z,99.90
2018-07-24T02:58:51.413Z,99.90
2018-07-24T03:01:20.374Z,99.90
2018-07-24T03:03:49.362Z,99.90
2018-07-24T03:06:18.365Z,99.90
2018-07-24T03:08:47.506Z,99.90
2018-07-24T03:11:16.431Z,99.90
2018-07-24T03:13:45.353Z,99.90
2018-07-24T03:16:14.430Z,99.90
2018-07-24T03:18:43.344Z,99.90
2018-07-24T03:21:12.231Z,99.90
2018-07-24T03:23:41.305Z,99.90
2018-07-24T03:26:10.187Z,99.90
2018-07-24T03:28:39.120Z,99.90
2018-07-24T03:31:07.992Z,99.90
2018-07-24T03:33:36.896Z,99.90
2018-07-24T03:36:05.776Z,99.90
2018-07-24T03:38:34.677Z,99.90
2018-07-24T03:41:03.638Z,99.90
2018-07-24T03:43:32.564Z,99.90
2018-07-24T03:46:01.505Z,99.90
2018-07-24T03:48:30.465Z,99.90
2018-07-24T03:50:59.369Z,99.90
2018-07-24T03:53:28.326Z,99.90
2018-07-24T03:55:57.184Z,99.90
2018-07-24T03:58:26.065Z,99.90
2018-07-24T04:00:55.013Z,99.90
2018-07-24T04:03:23.929Z,99.90
2018-07-24T04:05:52.857Z,99.90
2018-07-24T04:08:21.800Z,99.90
2018-07-24T04:10:50.779Z,99.90
2018-07-24T04:13:19.641Z,99.90
2018-07-24T04:15:48.528Z,99.90
2018-07-24T04:18:17.384Z,99.90
2018-07-24T04:20:46.297Z,99.90
2018-07-24T04:23:15.169Z,99.90
2018-07-24T04:25:44.085Z,99.90
2018-07-24T04:28:13.026Z,99.90
2018-07-24T04:30:41.923Z,99.90
2018-07-24T04:33:10.787Z,99.90
2018-07-24T04:35:39.689Z,99.90
2018-07-24T04:38:08.548Z,99.90
2018-07-24T04:40:37.545Z,99.90
2018-07-24T04:43:06.477Z,99.90
2018-07-24T04:45:35.404Z,99.90
2018-07-24T04:48:04.420Z,99.90
2018-07-24T04:50:33.416Z,99.90
2018-07-24T04:53:02.422Z,99.90
2018-07-24T04:55:31.346Z,99.90
2018-07-24T04:58:01.067Z,99.90
2018-07-24T05:00:30.032Z,99.90
2018-07-24T05:02:58.944Z,99.90
2018-07-24T05:05:27.889Z,99.90
2018-07-24T05:07:56.780Z,99.90
2018-07-24T05:10:25.699Z,99.90
2018-07-24T05:12:54.616Z,99.90
2018-07-24T05:15:23.501Z,99.90
2018-07-24T05:17:52.401Z,99.90
2018-07-24T05:20:21.300Z,99.90
2018-07-24T05:22:50.320Z,99.90
2018-07-24T05:25:19.208Z,98.90
2018-07-24T05:27:48.347Z,97.40
2018-07-24T05:30:17.328Z,96.30
2018-07-24T05:32:46.604Z,96.30
2018-07-24T05:35:15.700Z,96.60
2018-07-24T05:37:44.616Z,95.50
2018-07-24T05:40:13.565Z,95.30
2018-07-24T05:42:42.468Z,95.50
2018-07-24T05:45:11.363Z,94.50
2018-07-24T05:47:40.247Z,95.00
2018-07-24T05:50:09.268Z,94.10
2018-07-24T05:52:38.149Z,98.10
2018-07-24T05:55:07.137Z,94.40
2018-07-24T05:57:36.075Z,95.60
2018-07-24T06:00:05.964Z,92.90
2018-07-24T06:02:34.908Z,92.40
2018-07-24T06:05:04.011Z,95.20
2018-07-24T06:07:33.013Z,92.00
2018-07-24T06:10:02.069Z,90.90
2018-07-24T06:12:31.061Z,91.20
2018-07-24T06:15:00.162Z,88.80
2018-07-24T06:17:29.184Z,84.90
2018-07-24T06:19:58.027Z,88.80
2018-07-24T06:22:26.884Z,90.60
2018-07-24T06:24:55.773Z,91.50
2018-07-24T06:27:24.628Z,87.10
2018-07-24T06:29:53.485Z,86.30
2018-07-24T06:32:22.397Z,83.50
2018-07-24T06:34:51.267Z,86.70
2018-07-24T06:37:20.181Z,83.40
2018-07-24T06:39:49.033Z,79.80
2018-07-24T06:42:17.999Z,81.40
2018-07-24T06:44:46.849Z,82.20
2018-07-24T06:47:15.737Z,82.90
2018-07-24T06:49:44.600Z,82.60
2018-07-24T06:52:13.520Z,83.00
2018-07-24T06:54:42.388Z,84.50
2018-07-24T06:57:11.921Z,85.00
2018-07-24T06:59:40.785Z,80.50
2018-07-24T07:02:09.702Z,82.40
2018-07-24T07:04:38.568Z,80.10
2018-07-24T07:07:07.515Z,79.30
2018-07-24T07:09:36.404Z,75.60
2018-07-24T07:12:05.400Z,80.90
2018-07-24T07:14:34.426Z,77.20
2018-07-24T07:17:03.402Z,74.60
2018-07-24T07:19:32.402Z,78.50
2018-07-24T07:22:01.468Z,76.70
2018-07-24T07:24:30.497Z,73.40
2018-07-24T07:26:59.456Z,73.20
2018-07-24T07:29:28.353Z,79.20
2018-07-24T07:31:57.258Z,72.80
2018-07-24T07:34:26.153Z,79.30
2018-07-24T07:36:54.993Z,75.40
2018-07-24T07:39:23.885Z,73.90
2018-07-24T07:41:52.773Z,73.50
2018-07-24T07:44:21.726Z,69.10
2018-07-24T07:46:50.616Z,74.80
2018-07-24T07:49:19.514Z,72.70
2018-07-24T07:51:48.416Z,69.00
2018-07-24T07:54:17.320Z,70.10
2018-07-24T07:56:46.192Z,70.00
2018-07-24T07:59:15.103Z,68.00
2018-07-24T08:01:43.968Z,69.90
2018-07-24T08:04:12.885Z,64.00
2018-07-24T08:06:41.788Z,65.50
2018-07-24T08:09:11.691Z,64.50
2018-07-24T08:11:40.681Z,63.60
2018-07-24T08:14:09.560Z,61.60
2018-07-24T08:16:38.496Z,60.20
2018-07-24T08:19:07.416Z,60.80
2018-07-24T08:21:36.446Z,59.70
2018-07-24T08:24:05.489Z,53.90
2018-07-24T08:26:34.516Z,54.80
2018-07-24T08:29:03.717Z,56.80
2018-07-24T08:31:32.832Z,55.70
2018-07-24T08:34:01.789Z,54.10
2018-07-24T08:36:30.922Z,54.40
2018-07-24T08:38:59.917Z,56.70
2018-07-24T08:41:28.871Z,54.50
2018-07-24T08:43:57.783Z,56.70
2018-07-24T08:46:26.872Z,57.40
2018-07-24T08:48:55.777Z,53.40
2018-07-24T08:51:24.755Z,56.50
2018-07-24T08:53:54.028Z,54.60
2018-07-24T08:56:22.631Z,51.20
2018-07-24T08:58:51.571Z,54.50
2018-07-24T09:01:20.444Z,51.60
2018-07-24T09:03:49.520Z,54.20
2018-07-24T09:06:18.406Z,54.30
2018-07-24T09:08:47.392Z,53.80
2018-07-24T09:11:16.265Z,53.10
2018-07-24T09:13:45.176Z,54.00
2018-07-24T09:16:14.029Z,52.40
2018-07-24T09:18:42.922Z,51.70
2018-07-24T09:21:11.776Z,53.60
2018-07-24T09:23:40.652Z,50.60
2018-07-24T09:26:09.520Z,49.30
2018-07-24T09:28:38.400Z,54.00
2018-07-24T09:31:07.348Z,53.40
2018-07-24T09:33:36.245Z,51.30
2018-07-24T09:36:05.376Z,53.70
2018-07-24T09:38:34.316Z,50.00
2018-07-24T09:41:03.257Z,50.90
2018-07-24T09:43:32.241Z,52.10
2018-07-24T09:46:01.172Z,54.00
2018-07-24T09:48:30.122Z,49.90
2018-07-24T09:50:59.013Z,52.20
2018-07-24T09:53:27.940Z,51.80
2018-07-24T09:55:57.048Z,53.10
2018-07-24T09:58:25.941Z,50.30
2018-07-24T10:01:00.005Z,52.50
2018-07-24T10:03:28.919Z,49.60
2018-07-24T10:05:57.872Z,48.50
2018-07-24T10:08:26.778Z,50.70
2018-07-24T10:10:55.720Z,51.90
2018-07-24T10:13:24.646Z,48.50
2018-07-24T10:15:53.504Z,47.70
2018-07-24T10:18:22.368Z,48.00
2018-07-24T10:20:51.320Z,47.60
2018-07-24T10:23:20.234Z,49.10
2018-07-24T10:25:49.196Z,48.90
2018-07-24T10:28:18.080Z,49.40
2018-07-24T10:30:47.016Z,50.20
2018-07-24T10:33:15.892Z,48.60
2018-07-24T10:35:44.811Z,49.60
2018-07-24T10:38:13.684Z,49.60
2018-07-24T10:40:42.700Z,48.00
2018-07-24T10:43:11.746Z,47.60
2018-07-24T10:45:40.577Z,48.80
2018-07-24T10:48:09.462Z,50.40
2018-07-24T10:50:38.377Z,50.80
2018-07-24T10:53:07.625Z,51.20
2018-07-24T10:55:36.504Z,49.40
2018-07-24T10:58:05.519Z,49.40
2018-07-24T11:00:34.472Z,49.10
2018-07-24T11:03:03.525Z,49.10
2018-07-24T11:05:32.572Z,49.20
2018-07-24T11:08:01.613Z,49.90
2018-07-24T11:10:30.629Z,49.80
2018-07-24T11:12:59.595Z,47.80
2018-07-24T11:15:28.473Z,50.60
2018-07-24T11:17:57.392Z,48.40
2018-07-24T11:20:26.292Z,47.70
2018-07-24T11:22:55.333Z,47.30
2018-07-24T11:25:24.152Z,47.60
2018-07-24T11:27:53.101Z,48.60
2018-07-24T11:30:22.009Z,51.40
2018-07-24T11:32:50.991Z,52.40
2018-07-24T11:35:19.925Z,53.20
2018-07-24T11:37:48.881Z,54.00
2018-07-24T11:40:17.924Z,53.40
2018-07-24T11:42:46.792Z,55.10
2018-07-24T11:45:15.704Z,52.70
2018-07-24T11:47:44.580Z,53.70
2018-07-24T11:50:13.492Z,53.00
2018-07-24T11:52:42.409Z,53.50
2018-07-24T11:55:11.406Z,54.70
2018-07-24T11:57:40.330Z,54.30
2018-07-24T12:00:09.273Z,51.60
2018-07-24T12:02:38.132Z,52.90
2018-07-24T12:05:07.184Z,51.60
2018-07-24T12:07:36.085Z,54.50
2018-07-24T12:10:05.540Z,51.20
2018-07-24T12:12:34.497Z,51.40
2018-07-24T12:15:03.475Z,52.90
2018-07-24T12:17:32.361Z,51.60
2018-07-24T12:20:01.260Z,49.70
2018-07-24T12:22:30.187Z,51.70
2018-07-24T12:24:59.152Z,51.50
2018-07-24T12:27:28.077Z,52.80
2018-07-24T12:29:57.057Z,53.00
2018-07-24T12:32:26.025Z,53.70
2018-07-24T12:34:55.042Z,54.30
2018-07-24T12:37:24.051Z,52.50
2018-07-24T12:39:53.036Z,51.90
2018-07-24T12:42:22.077Z,53.50
2018-07-24T12:44:51.040Z,50.70
2018-07-24T12:47:20.108Z,52.20
2018-07-24T12:49:49.089Z,52.70
2018-07-24T12:52:18.083Z,49.80
2018-07-24T12:54:47.145Z,51.60
2018-07-24T12:57:16.226Z,50.00
2018-07-24T12:59:45.198Z,50.40
2018-07-24T13:02:14.196Z,49.80
2018-07-24T13:04:43.218Z,49.90
2018-07-24T13:07:12.167Z,49.70
2018-07-24T13:09:41.166Z,49.10
2018-07-24T13:12:10.230Z,48.90
2018-07-24T13:14:39.239Z,48.90
2018-07-24T13:17:08.273Z,50.10
2018-07-24T13:19:37.335Z,50.30
2018-07-24T13:22:06.409Z,49.90
2018-07-24T13:24:35.451Z,47.80
2018-07-24T13:27:04.588Z,49.10
2018-07-24T13:29:33.565Z,49.10
2018-07-24T13:32:02.714Z,49.20
2018-07-24T13:34:31.641Z,51.10
2018-07-24T13:37:00.645Z,49.40
2018-07-24T13:39:29.727Z,50.60
2018-07-24T13:41:58.758Z,51.60
2018-07-24T13:44:27.823Z,51.80
2018-07-24T13:46:56.848Z,47.80
2018-07-24T13:49:25.884Z,51.40
2018-07-24T13:51:54.940Z,48.40
2018-07-24T13:54:23.919Z,49.60
2018-07-24T13:56:52.900Z,50.10
2018-07-24T13:59:21.864Z,49.80
2018-07-24T14:01:50.765Z,46.20
2018-07-24T14:04:19.750Z,50.30
2018-07-24T14:06:48.750Z,47.60
2018-07-24T14:09:17.753Z,47.00
2018-07-24T14:11:46.659Z,48.20
2018-07-24T14:14:15.693Z,49.10
2018-07-24T14:16:44.577Z,48.60
2018-07-24T14:19:13.485Z,48.70
2018-07-24T14:21:42.420Z,49.00
2018-07-24T14:24:11.503Z,46.70
2018-07-24T14:26:40.415Z,46.60
2018-07-24T14:29:09.349Z,45.20
2018-07-24T14:31:38.260Z,47.00
2018-07-24T14:34:07.244Z,47.00
2018-07-24T14:36:36.141Z,44.40
2018-07-24T14:39:08.299Z,44.80
2018-07-24T14:41:37.232Z,46.20
2018-07-24T14:44:06.228Z,46.00
2018-07-24T14:46:35.211Z,44.40
2018-07-24T14:49:04.156Z,45.20
2018-07-24T14:51:33.112Z,43.90
2018-07-24T14:54:01.972Z,46.80
2018-07-24T14:56:30.936Z,46.20
2018-07-24T14:58:59.872Z,45.60
2018-07-24T15:01:28.765Z,44.70
2018-07-24T15:03:57.674Z,43.60
2018-07-24T15:06:26.851Z,45.50
2018-07-24T15:08:55.821Z,46.40
2018-07-24T15:11:24.818Z,44.90
2018-07-24T15:13:53.720Z,47.70
2018-07-24T15:16:22.658Z,46.50
2018-07-24T15:18:51.548Z,46.50
2018-07-24T15:21:20.607Z,45.70
2018-07-24T15:23:49.532Z,45.20
2018-07-24T15:26:18.510Z,48.00
2018-07-24T15:28:47.468Z,47.20
2018-07-24T15:31:16.776Z,47.30
2018-07-24T15:33:45.731Z,47.20
2018-07-24T15:36:14.640Z,46.10
2018-07-24T15:38:43.529Z,47.10
2018-07-24T15:41:12.473Z,45.80
2018-07-24T15:43:41.408Z,46.20
2018-07-24T15:46:10.324Z,45.40
2018-07-24T15:48:39.332Z,46.50
2018-07-24T15:51:08.220Z,44.60
2018-07-24T15:53:37.168Z,44.00
2018-07-24T15:56:06.140Z,44.70
2018-07-24T15:58:35.162Z,45.30
2018-07-24T16:01:04.129Z,44.70
2018-07-24T16:03:33.052Z,44.30
2018-07-24T16:06:01.983Z,44.70
2018-07-24T16:08:30.908Z,47.50
2018-07-24T16:10:59.869Z,47.20
2018-07-24T16:13:28.780Z,47.50
2018-07-24T16:15:57.795Z,46.40
2018-07-24T16:18:26.656Z,43.40
2018-07-24T16:20:55.542Z,46.60
2018-07-24T16:23:24.484Z,43.20
2018-07-24T16:25:53.356Z,47.90
2018-07-24T16:28:22.273Z,46.80
2018-07-24T16:30:51.228Z,43.90
2018-07-24T16:33:20.240Z,45.50
2018-07-24T16:35:49.227Z,45.50
2018-07-24T16:38:18.173Z,45.20
2018-07-24T16:40:47.118Z,45.90
2018-07-24T16:43:16.052Z,45.30
2018-07-24T16:45:45.012Z,47.60
2018-07-24T16:48:13.938Z,47.20
2018-07-24T16:50:42.873Z,47.40
2018-07-24T16:53:11.786Z,46.70
2018-07-24T16:55:40.845Z,47.20
2018-07-24T16:58:09.725Z,47.00
2018-07-24T17:00:38.636Z,46.80
2018-07-24T17:03:07.551Z,47.10
2018-07-24T17:05:36.456Z,47.10
2018-07-24T17:08:05.356Z,47.30
2018-07-24T17:10:34.297Z,46.50
2018-07-24T17:13:03.207Z,44.90
2018-07-24T17:15:32.162Z,45.60
2018-07-24T17:18:01.103Z,45.90
2018-07-24T17:20:30.008Z,46.40
2018-07-24T17:22:58.951Z,47.70
2018-07-24T17:25:27.864Z,46.00
2018-07-24T17:27:56.767Z,44.30
2018-07-24T17:30:25.672Z,46.50
2018-07-24T17:32:54.612Z,47.80
2018-07-24T17:35:23.553Z,46.10
2018-07-24T17:37:52.488Z,45.70
2018-07-24T17:40:21.453Z,44.90
2018-07-24T17:42:50.391Z,46.10
2018-07-24T17:45:19.299Z,45.70
2018-07-24T17:47:48.251Z,45.30
2018-07-24T17:50:17.142Z,45.80
2018-07-24T17:52:46.060Z,45.10
2018-07-24T17:55:14.928Z,45.70
2018-07-24T17:57:43.828Z,46.10
2018-07-24T18:00:12.760Z,45.20
2018-07-24T18:02:41.668Z,45.70
2018-07-24T18:05:10.591Z,46.00
2018-07-24T18:07:39.517Z,47.20
2018-07-24T18:10:08.478Z,46.40
2018-07-24T18:12:37.453Z,47.60
2018-07-24T18:15:06.420Z,47.30
2018-07-24T18:17:35.345Z,46.30
2018-07-24T18:20:04.695Z,46.80
2018-07-24T18:22:33.656Z,47.10
2018-07-24T18:25:02.577Z,46.70
2018-07-24T18:27:31.453Z,46.70
2018-07-24T18:30:00.408Z,47.20
2018-07-24T18:32:29.296Z,49.00
2018-07-24T18:34:58.233Z,47.70
2018-07-24T18:37:27.108Z,50.40
2018-07-24T18:39:56.036Z,50.50
2018-07-24T18:42:24.949Z,50.10
2018-07-24T18:44:53.860Z,47.90
2018-07-24T18:47:22.780Z,50.00
2018-07-24T18:49:51.717Z,49.80
2018-07-24T18:52:20.652Z,51.20
2018-07-24T18:54:49.623Z,50.30
2018-07-24T18:57:18.500Z,53.50
2018-07-24T18:59:47.451Z,53.50
2018-07-24T19:02:16.354Z,50.80
2018-07-24T19:04:45.268Z,52.10
2018-07-24T19:07:14.177Z,52.70
2018-07-24T19:09:43.104Z,52.20
2018-07-24T19:12:12.044Z,53.70
2018-07-24T19:14:40.931Z,52.90
2018-07-24T19:17:09.873Z,53.50
2018-07-24T19:19:38.804Z,54.90
2018-07-24T19:22:07.744Z,55.10
2018-07-24T19:24:36.656Z,56.80
2018-07-24T19:27:05.588Z,55.60
2018-07-24T19:29:34.499Z,56.60
2018-07-24T19:32:03.562Z,57.00
2018-07-24T19:34:32.444Z,58.10
2018-07-24T19:37:01.365Z,58.80
2018-07-24T19:39:30.228Z,59.30
2018-07-24T19:41:59.144Z,59.30
2018-07-24T19:44:28.013Z,59.00
2018-07-24T19:46:56.908Z,59.40
2018-07-24T19:49:25.883Z,60.70
2018-07-24T19:51:54.809Z,61.50
2018-07-24T19:54:23.733Z,62.40
2018-07-24T19:56:52.641Z,64.30
2018-07-24T19:59:21.568Z,64.00
2018-07-24T20:01:50.468Z,63.70
2018-07-24T20:04:19.372Z,63.00
2018-07-24T20:06:48.256Z,64.00
2018-07-24T20:09:17.209Z,65.00
2018-07-24T20:11:46.081Z,64.10
2018-07-24T20:14:15.021Z,68.90
2018-07-24T20:16:43.896Z,74.90
2018-07-24T20:19:12.841Z,78.20
2018-07-24T20:21:41.721Z,78.80
2018-07-24T20:24:10.642Z,81.60
2018-07-24T20:26:39.561Z,83.40
2018-07-24T20:29:08.512Z,84.10
2018-07-24T20:31:37.435Z,84.40
2018-07-24T20:34:06.409Z,86.30
2018-07-24T20:36:35.385Z,87.40
2018-07-24T20:39:06.549Z,89.60
2018-07-24T20:41:35.608Z,91.60
2018-07-24T20:44:04.660Z,92.00
2018-07-24T20:46:33.596Z,91.00
2018-07-24T20:49:02.740Z,90.70
2018-07-24T20:51:31.669Z,90.90
2018-07-24T20:54:00.575Z,91.00
2018-07-24T20:56:29.621Z,90.90
2018-07-24T20:58:58.536Z,92.40
2018-07-24T21:01:27.456Z,94.00
2018-07-24T21:03:56.331Z,93.00
2018-07-24T21:06:25.242Z,92.10
2018-07-24T21:08:54.156Z,91.80
2018-07-24T21:11:23.063Z,92.90
2018-07-24T21:13:51.931Z,93.00
2018-07-24T21:16:20.890Z,94.60
2018-07-24T21:18:50.260Z,94.10
2018-07-24T21:21:19.168Z,90.40
2018-07-24T21:23:48.048Z,88.10
2018-07-24T21:26:16.973Z,91.20
2018-07-24T21:28:45.879Z,89.10
2018-07-24T21:31:14.826Z,90.20
2018-07-24T21:33:43.700Z,89.90
2018-07-24T21:36:12.636Z,90.00
2018-07-24T21:38:41.541Z,91.10
2018-07-24T21:41:10.424Z,91.70
2018-07-24T21:43:39.357Z,92.30
2018-07-24T21:46:08.364Z,92.20
2018-07-24T21:48:37.288Z,93.20
2018-07-24T21:51:06.200Z,93.50
2018-07-24T21:53:35.389Z,93.90
2018-07-24T21:56:04.315Z,94.00
2018-07-24T21:58:33.252Z,92.90
2018-07-24T22:01:07.384Z,93.20
2018-07-24T22:03:36.277Z,94.90
2018-07-24T22:06:05.200Z,95.30
2018-07-24T22:08:34.316Z,96.00
2018-07-24T22:11:03.211Z,96.10
2018-07-24T22:13:32.108Z,96.50
2018-07-24T22:16:00.985Z,96.20
2018-07-24T22:18:29.884Z,96.10
2018-07-24T22:20:58.762Z,96.40
2018-07-24T22:23:27.693Z,96.40
2018-07-24T22:25:56.579Z,96.30
2018-07-24T22:28:25.460Z,96.50
2018-07-24T22:30:54.336Z,95.90
2018-07-24T22:33:23.277Z,95.90
2018-07-24T22:35:52.153Z,95.60
2018-07-24T22:38:21.051Z,95.20
2018-07-24T22:40:49.912Z,95.30
2018-07-24T22:43:18.828Z,95.30
2018-07-24T22:45:47.678Z,94.60
2018-07-24T22:48:16.581Z,95.00
2018-07-24T22:50:45.468Z,95.00
2018-07-24T22:53:14.376Z,94.80
2018-07-24T22:55:43.255Z,94.40
2018-07-24T22:58:12.181Z,95.30
2018-07-24T23:00:41.058Z,96.60
2018-07-24T23:03:09.945Z,96.10
2018-07-24T23:05:38.803Z,96.00
2018-07-24T23:08:07.704Z,95.60
2018-07-24T23:10:36.725Z,95.50
2018-07-24T23:13:05.753Z,97.50
2018-07-24T23:15:34.684Z,98.50
2018-07-24T23:18:03.568Z,99.20
2018-07-24T23:20:32.453Z,99.90
2018-07-24T23:23:01.364Z,99.90
2018-07-24T23:25:30.344Z,99.90
2018-07-24T23:27:59.300Z,99.10
2018-07-24T23:30:28.252Z,99.40
2018-07-24T23:32:57.234Z,99.60
2018-07-24T23:35:26.219Z,99.50
2018-07-24T23:37:55.266Z,98.60
2018-07-24T23:40:24.253Z,99.90
2018-07-24T23:42:53.200Z,99.90
2018-07-24T23:45:22.240Z,99.10
2018-07-24T23:47:51.774Z,99.70
2018-07-24T23:50:20.769Z,99.90
2018-07-24T23:52:49.728Z,98.60
2018-07-24T23:55:18.704Z,98.80
2018-07-24T23:57:47.560Z,98.40
